Time;durP1;ratioP1;P1;durP2;ratioP2;P2;SDS_P1;SDS_P2;PMS_P1;PMS_P2;Temp;Humidity;BMP_temperature;BMP_pressure;BME280_temperature;BME280_humidity;BME280_pressure;Samples;Min_cycle;Max_cycle;Signal;HPM_P1;HPM_P2
2023/06/15 00:01:01;;;;;;;22.70;11.83;;;;;;;;;;6249986;28;20064;-75
2023/06/15 00:04:02;;;;;;;15.63;10.93;;;;;;;;;;6249629;28;20014;-74
2023/06/15 00:07:02;;;;;;;17.10;11.67;;;;;;;;;;6246074;28;20029;-74
2023/06/15 00:10:03;;;;;;;21.37;13.23;;;;;;;;;;6248331;28;20021;-74
2023/06/15 00:13:03;;;;;;;22.93;11.70;;;;;;;;;;6261658;28;20048;-80
2023/06/15 00:16:03;;;;;;;31.47;14.23;;;;;;;;;;6268688;28;20048;-80
2023/06/15 00:19:03;;;;;;;18.77;12.97;;;;;;;;;;6269630;28;20013;-80
2023/06/15 00:22:04;;;;;;;16.97;11.30;;;;;;;;;;6262805;28;20029;-81
2023/06/15 00:25:05;;;;;;;16.50;11.77;;;;;;;;;;6269489;28;20020;-81
2023/06/15 00:28:05;;;;;;;17.80;12.07;;;;;;;;;;6266047;28;20032;-80
2023/06/15 00:31:05;;;;;;;26.03;14.30;;;;;;;;;;6265426;28;20798;-74
2023/06/15 00:34:06;;;;;;;25.67;13.40;;;;;;;;;;6268736;28;20025;-74
2023/06/15 00:37:06;;;;;;;42.28;14.48;;;;;;;;;;6268897;28;20021;-74
2023/06/15 00:40:07;;;;;;;22.87;14.07;;;;;;;;;;6261210;28;20518;-74
2023/06/15 00:43:07;;;;;;;21.73;15.30;;;;;;;;;;6265360;28;20021;-74
2023/06/15 00:46:07;;;;;;;25.47;14.43;;;;;;;;;;6263898;28;20024;-74
2023/06/15 00:49:08;;;;;;;37.90;15.47;;;;;;;;;;6268396;28;20028;-74
2023/06/15 00:52:08;;;;;;;65.77;15.77;;;;;;;;;;6268727;28;20029;-74
2023/06/15 00:55:12;;;;;;;49.93;15.20;;;;;;;;;;6268551;28;20057;-74
2023/06/15 00:58:12;;;;;;;51.17;15.63;;;;;;;;;;6256297;28;20025;-74
2023/06/15 01:01:12;;;;;;;59.80;17.80;;;;;;;;;;6268812;28;20021;-74
2023/06/15 01:04:12;;;;;;;32.80;15.57;;;;;;;;;;6262250;28;20029;-74
2023/06/15 01:07:13;;;;;;;39.47;14.27;;;;;;;;;;6264344;28;20531;-74
2023/06/15 01:10:15;;;;;;;98.83;17.17;;;;;;;;;;6268236;28;20035;-74
2023/06/15 01:13:19;;;;;;;112.53;17.38;;;;;;;;;;6271466;28;20043;-74
2023/06/15 01:16:21;;;;;;;51.60;17.02;;;;;;;;;;6269197;28;20827;-74
2023/06/15 01:20:27;;;;;;;43.97;15.52;;;;;;;;;;6260827;28;20074;-74
2023/06/15 01:23:13;;;;;;;77.18;17.13;;;;;;;;;;6263933;28;20462;-72
2023/06/15 01:26:16;;;;;;;77.45;20.30;;;;;;;;;;6270343;28;20021;-73
2023/06/15 01:29:17;;;;;;;50.95;17.27;;;;;;;;;;6266438;28;20501;-72
2023/06/15 01:32:18;;;;;;;81.53;19.33;;;;;;;;;;6267443;28;20021;-72
2023/06/15 01:35:19;;;;;;;104.93;18.47;;;;;;;;;;6250569;28;20017;-72
2023/06/15 01:38:21;;;;;;;78.47;17.00;;;;;;;;;;6271226;28;20031;-72
2023/06/15 01:41:23;;;;;;;97.70;20.25;;;;;;;;;;6274670;28;20175;-78
2023/06/15 01:44:23;;;;;;;;;;;;;;;;;;6275941;28;20086;-77
2023/06/15 01:47:23;;;;;;;58.70;20.20;;;;;;;;;;6267106;28;20457;-77
2023/06/15 01:50:24;;;;;;;60.93;19.00;;;;;;;;;;6266649;28;20021;-77
2023/06/15 01:53:24;;;;;;;100.20;20.10;;;;;;;;;;6270800;28;20103;-72
2023/06/15 01:56:25;;;;;;;53.67;16.20;;;;;;;;;;6266301;28;20025;-72
2023/06/15 01:59:25;;;;;;;40.80;18.00;;;;;;;;;;6267843;28;20471;-72
2023/06/15 02:02:25;;;;;;;49.27;17.27;;;;;;;;;;6262481;28;20084;-76
2023/06/15 02:05:26;;;;;;;47.85;17.15;;;;;;;;;;6275709;28;20023;-76
2023/06/15 02:08:26;;;;;;;65.03;18.10;;;;;;;;;;6272723;28;20467;-76
2023/06/15 02:11:27;;;;;;;50.70;18.80;;;;;;;;;;6267210;28;20031;-76
2023/06/15 02:14:28;;;;;;;55.67;16.53;;;;;;;;;;6269635;28;20024;-76
2023/06/15 02:17:31;;;;;;;38.87;17.33;;;;;;;;;;6265234;28;20271;-79
2023/06/15 02:20:33;;;;;;;84.80;17.70;;;;;;;;;;6268803;28;20459;-78
2023/06/15 02:23:34;;;;;;;59.60;18.88;;;;;;;;;;6277147;28;20073;-78
2023/06/15 02:26:34;;;;;;;67.00;18.00;;;;;;;;;;6269191;28;20398;-78
2023/06/15 02:29:35;;;;;;;118.10;18.57;;;;;;;;;;6274075;28;20013;-78
2023/06/15 02:32:37;;;;;;;71.05;18.25;;;;;;;;;;6269733;28;20094;-76
2023/06/15 02:35:37;;;;;;;46.33;17.08;;;;;;;;;;6269003;28;20049;-78
2023/06/15 02:38:38;;;;;;;62.10;17.00;;;;;;;;;;6261063;28;20071;-76
2023/06/15 02:41:38;;;;;;;74.87;19.63;;;;;;;;;;6265103;28;20565;-76
2023/06/15 02:44:38;;;;;;;58.92;18.88;;;;;;;;;;6260817;28;20025;-76
2023/06/15 02:47:38;;;;;;;70.37;20.87;;;;;;;;;;6269323;28;20526;-76
2023/06/15 02:50:38;;;;;;;70.35;18.85;;;;;;;;;;6257294;28;20124;-77
2023/06/15 02:53:39;;;;;;;85.43;22.60;;;;;;;;;;6251823;28;20033;-76
2023/06/15 02:56:41;;;;;;;123.28;22.02;;;;;;;;;;6267284;28;20104;-76
2023/06/15 02:59:41;;;;;;;62.53;19.83;;;;;;;;;;6265374;28;20018;-77
2023/06/15 03:02:43;;;;;;;71.20;19.75;;;;;;;;;;6267299;28;20044;-72
2023/06/15 03:05:43;;;;;;;71.20;20.10;;;;;;;;;;6262990;28;20021;-73
2023/06/15 03:08:44;;;;;;;77.30;19.40;;;;;;;;;;6265744;28;20025;-73
2023/06/15 03:11:45;;;;;;;75.23;20.20;;;;;;;;;;6247728;28;20047;-76
2023/06/15 03:14:50;;;;;;;85.73;21.33;;;;;;;;;;6265328;28;20021;-77
2023/06/15 03:17:50;;;;;;;103.43;19.63;;;;;;;;;;6268104;28;20040;-77
2023/06/15 03:20:52;;;;;;;79.18;17.88;;;;;;;;;;6251804;28;20021;-77
2023/06/15 03:23:53;;;;;;;53.00;17.08;;;;;;;;;;6264569;28;20024;-76
2023/06/15 03:26:57;;;;;;;54.47;17.83;;;;;;;;;;6264472;28;20032;-77
2023/06/15 03:30:01;;;;;;;98.78;19.35;;;;;;;;;;6266361;28;20096;-77
2023/06/15 03:33:02;;;;;;;79.88;17.02;;;;;;;;;;6273886;28;20529;-77
2023/06/15 03:36:03;;;;;;;79.32;20.38;;;;;;;;;;6262008;28;20108;-77
2023/06/15 03:39:03;;;;;;;93.80;20.70;;;;;;;;;;6266219;28;20021;-77
2023/06/15 03:42:03;;;;;;;79.13;18.93;;;;;;;;;;6273891;28;20089;-76
2023/06/15 03:45:04;;;;;;;64.37;21.27;;;;;;;;;;6268398;28;20100;-77
2023/06/15 03:48:05;;;;;;;65.00;22.00;;;;;;;;;;6259545;28;20039;-77
2023/06/15 03:51:05;;;;;;;76.57;20.60;;;;;;;;;;6279702;28;20094;-77
2023/06/15 03:54:05;;;;;;;97.40;18.90;;;;;;;;;;6269516;28;20059;-77
2023/06/15 03:57:06;;;;;;;74.73;17.37;;;;;;;;;;6273663;28;20024;-78
2023/06/15 04:00:07;;;;;;;80.63;17.57;;;;;;;;;;6270086;28;20017;-77
2023/06/15 04:03:09;;;;;;;57.83;16.77;;;;;;;;;;6268848;28;20032;-77
2023/06/15 04:06:09;;;;;;;72.57;16.02;;;;;;;;;;6272650;28;20096;-78
2023/06/15 04:09:09;;;;;;;66.67;12.60;;;;;;;;;;6271337;28;20035;-78
2023/06/15 04:12:10;;;;;;;67.43;16.43;;;;;;;;;;6262135;28;20045;-77
2023/06/15 04:15:11;;;;;;;70.70;14.57;;;;;;;;;;6265614;28;20116;-77
2023/06/15 04:18:11;;;;;;;69.00;14.93;;;;;;;;;;6263570;28;20060;-78
2023/06/15 04:21:11;;;;;;;47.20;11.80;;;;;;;;;;6267500;28;20101;-78
2023/06/15 04:24:11;;;;;;;56.80;12.23;;;;;;;;;;6263909;28;20021;-73
2023/06/15 04:27:12;;;;;;;58.43;13.03;;;;;;;;;;6264785;28;20386;-73
2023/06/15 04:30:16;;;;;;;43.30;13.73;;;;;;;;;;6255814;28;20047;-73
2023/06/15 04:33:17;;;;;;;39.80;13.05;;;;;;;;;;6269436;28;20021;-73
2023/06/15 04:36:17;;;;;;;72.45;13.23;;;;;;;;;;6266998;28;20060;-72
2023/06/15 04:39:18;;;;;;;58.72;12.45;;;;;;;;;;6263494;28;20010;-73
2023/06/15 04:42:19;;;;;;;42.45;13.63;;;;;;;;;;6262092;28;20021;-78
2023/06/15 04:45:19;;;;;;;34.10;13.93;;;;;;;;;;6264663;28;20796;-78
2023/06/15 04:48:19;;;;;;;71.67;14.00;;;;;;;;;;6265511;28;20021;-78
2023/06/15 04:51:20;;;;;;;34.33;12.55;;;;;;;;;;6266031;28;20438;-78
2023/06/15 04:54:20;;;;;;;15.43;12.07;;;;;;;;;;6266309;28;20100;-77
2023/06/15 04:57:20;;;;;;;29.67;13.40;;;;;;;;;;6263081;28;20114;-77
2023/06/15 05:00:20;;;;;;;25.45;14.85;;;;;;;;;;6263253;28;20048;-77
2023/06/15 05:03:21;;;;;;;22.00;14.40;;;;;;;;;;6262229;28;20590;-78
2023/06/15 05:06:21;;;;;;;25.27;16.60;;;;;;;;;;6245234;28;20096;-78
2023/06/15 05:09:21;;;;;;;31.33;18.83;;;;;;;;;;6273946;28;20471;-79
2023/06/15 05:12:21;;;;;;;27.30;16.90;;;;;;;;;;6270254;28;20406;-80
2023/06/15 05:15:22;;;;;;;28.73;19.03;;;;;;;;;;6255686;28;20059;-80
2023/06/15 05:18:26;;;;;;;34.85;19.83;;;;;;;;;;6278202;28;20082;-80
2023/06/15 05:21:26;;;;;;;25.27;16.17;;;;;;;;;;6269164;28;20032;-79
2023/06/15 05:24:27;;;;;;;24.17;14.00;;;;;;;;;;6278409;28;20474;-80
2023/06/15 05:27:28;;;;;;;27.87;16.47;;;;;;;;;;6263526;28;20017;-80
2023/06/15 05:30:29;;;;;;;26.58;17.08;;;;;;;;;;6269129;28;20033;-80
2023/06/15 05:33:29;;;;;;;31.40;19.43;;;;;;;;;;6273871;28;20112;-74
2023/06/15 05:36:30;;;;;;;25.33;16.87;;;;;;;;;;6272697;28;20035;-74
2023/06/15 05:39:30;;;;;;;28.38;16.67;;;;;;;;;;6268744;28;20605;-74
2023/06/15 05:42:31;;;;;;;27.23;18.83;;;;;;;;;;6267815;28;20025;-74
2023/06/15 05:45:31;;;;;;;29.60;18.53;;;;;;;;;;6268335;28;20078;-74
2023/06/15 05:48:31;;;;;;;29.67;17.47;;;;;;;;;;6269117;28;20581;-74
2023/06/15 05:51:31;;;;;;;24.35;16.65;;;;;;;;;;6261321;28;20028;-74
2023/06/15 05:54:31;;;;;;;27.17;17.30;;;;;;;;;;6262094;28;20459;-74
2023/06/15 05:57:33;;;;;;;27.73;18.33;;;;;;;;;;6265319;28;20028;-74
2023/06/15 06:00:33;;;;;;;29.90;18.35;;;;;;;;;;6265780;28;20033;-74
2023/06/15 06:03:35;;;;;;;25.80;16.92;;;;;;;;;;6267685;28;20445;-74
2023/06/15 06:06:35;;;;;;;24.17;15.18;;;;;;;;;;6263827;28;20419;-74
2023/06/15 06:09:39;;;;;;;25.52;17.77;;;;;;;;;;6265388;28;20016;-74
2023/06/15 06:12:39;;;;;;;25.95;18.13;;;;;;;;;;6266276;28;20095;-80
2023/06/15 06:15:40;;;;;;;23.02;15.73;;;;;;;;;;6268203;28;20032;-81
2023/06/15 06:18:40;;;;;;;28.37;18.37;;;;;;;;;;6266505;28;20036;-80
2023/06/15 06:21:40;;;;;;;26.80;17.60;;;;;;;;;;6265664;28;20036;-81
2023/06/15 06:24:40;;;;;;;24.00;17.10;;;;;;;;;;6266400;28;20090;-81
2023/06/15 06:27:40;;;;;;;21.70;14.50;;;;;;;;;;6264422;28;20067;-80
2023/06/15 06:30:41;;;;;;;23.77;14.85;;;;;;;;;;6270477;28;20150;-80
2023/06/15 06:33:41;;;;;;;25.57;15.50;;;;;;;;;;6266209;28;20052;-80
2023/06/15 06:36:41;;;;;;;24.05;14.57;;;;;;;;;;6264623;28;20453;-81
2023/06/15 06:39:41;;;;;;;20.35;12.45;;;;;;;;;;6267877;28;20036;-78
2023/06/15 06:42:42;;;;;;;19.33;12.53;;;;;;;;;;6266219;28;20041;-80
2023/06/15 06:45:43;;;;;;;22.10;12.05;;;;;;;;;;6268626;28;20021;-81
2023/06/15 06:48:43;;;;;;;19.20;12.77;;;;;;;;;;6270242;28;20024;-81
2023/06/15 06:51:43;;;;;;;22.10;13.87;;;;;;;;;;6269737;28;20487;-81
2023/06/15 06:54:43;;;;;;;28.50;16.20;;;;;;;;;;6277878;28;20094;-82
2023/06/15 06:57:43;;;;;;;23.92;14.63;;;;;;;;;;6267378;28;20679;-82
2023/06/15 07:00:44;;;;;;;26.55;13.77;;;;;;;;;;6266756;28;20032;-82
2023/06/15 07:03:44;;;;;;;24.60;15.03;;;;;;;;;;6265795;28;20392;-82
2023/06/15 07:06:44;;;;;;;19.50;13.00;;;;;;;;;;6253610;28;20075;-82
2023/06/15 07:09:45;;;;;;;16.73;11.00;;;;;;;;;;6262394;28;20052;-82
2023/06/15 07:12:45;;;;;;;20.93;11.57;;;;;;;;;;6270520;28;20049;-81
2023/06/15 07:15:45;;;;;;;16.95;11.25;;;;;;;;;;6270542;28;20067;-82
2023/06/15 07:18:45;;;;;;;16.33;11.05;;;;;;;;;;6271226;28;20028;-81
2023/06/15 07:21:45;;;;;;;17.33;12.40;;;;;;;;;;6271354;28;20703;-82
2023/06/15 07:24:46;;;;;;;17.43;10.47;;;;;;;;;;6271232;28;20024;-83
2023/06/15 07:27:46;;;;;;;17.80;10.73;;;;;;;;;;6270667;28;20024;-82
2023/06/15 07:30:49;;;;;;;17.92;9.98;;;;;;;;;;6270825;28;20028;-82
2023/06/15 07:33:49;;;;;;;14.00;9.60;;;;;;;;;;6270212;28;20116;-81
2023/06/15 07:36:49;;;;;;;16.47;10.37;;;;;;;;;;6269054;28;20033;-84
2023/06/15 07:39:49;;;;;;;13.40;9.07;;;;;;;;;;6264867;28;20117;-82
2023/06/15 07:42:50;;;;;;;15.20;8.85;;;;;;;;;;6265474;28;20108;-80
2023/06/15 07:45:51;;;;;;;13.52;7.32;;;;;;;;;;6268082;28;20021;-79
2023/06/15 07:48:51;;;;;;;13.55;7.70;;;;;;;;;;6275510;28;20070;-83
2023/06/15 07:51:51;;;;;;;14.30;9.57;;;;;;;;;;6270105;28;20067;-81
2023/06/15 07:54:52;;;;;;;10.73;8.27;;;;;;;;;;6269218;28;20104;-80
2023/06/15 07:57:52;;;;;;;12.60;8.70;;;;;;;;;;6269814;28;20021;-82
2023/06/15 08:00:52;;;;;;;12.95;8.93;;;;;;;;;;6267478;28;20025;-82
2023/06/15 08:03:52;;;;;;;15.30;8.73;;;;;;;;;;6270364;28;20025;-82
2023/06/15 08:06:52;;;;;;;9.90;6.78;;;;;;;;;;6269886;28;20028;-82
2023/06/15 08:09:53;;;;;;;12.43;7.67;;;;;;;;;;6270103;28;20021;-82
2023/06/15 08:12:53;;;;;;;11.63;8.20;;;;;;;;;;6270113;28;20045;-81
2023/06/15 08:15:53;;;;;;;12.43;8.47;;;;;;;;;;6269272;28;20119;-84
2023/06/15 08:18:53;;;;;;;12.93;8.40;;;;;;;;;;6269732;28;20025;-84
2023/06/15 08:21:54;;;;;;;10.88;7.05;;;;;;;;;;6268438;28;20028;-74
2023/06/15 08:24:54;;;;;;;13.60;8.37;;;;;;;;;;6268632;28;20533;-75
2023/06/15 08:27:54;;;;;;;10.07;7.40;;;;;;;;;;6267583;28;20025;-75
2023/06/15 08:30:54;;;;;;;13.83;8.37;;;;;;;;;;6246443;28;20465;-75
2023/06/15 08:33:54;;;;;;;11.77;7.23;;;;;;;;;;6270711;28;20044;-82
2023/06/15 08:36:56;;;;;;;10.23;7.43;;;;;;;;;;6268963;28;20079;-83
2023/06/15 08:39:56;;;;;;;;;;;;;;;;;;6269921;28;20075;-85
2023/06/15 08:42:58;;;;;;;15.43;8.87;;;;;;;;;;6268885;28;19909;-85
2023/06/15 08:45:58;;;;;;;11.60;8.32;;;;;;;;;;6269066;28;20083;-84
2023/06/15 08:48:59;;;;;;;13.83;9.03;;;;;;;;;;6269122;28;20025;-84
2023/06/15 08:52:00;;;;;;;11.70;8.47;;;;;;;;;;6269418;28;20028;-85
2023/06/15 08:55:01;;;;;;;15.57;7.38;;;;;;;;;;6266435;28;20113;-85
2023/06/15 08:58:01;;;;;;;13.48;7.57;;;;;;;;;;6266222;28;20095;-87
2023/06/15 09:01:02;;;;;;;10.77;6.97;;;;;;;;;;6268486;28;20431;-85
2023/06/15 09:04:02;;;;;;;10.07;7.40;;;;;;;;;;6266233;28;20065;-84
2023/06/15 09:07:03;;;;;;;9.53;7.03;;;;;;;;;;6266090;28;20024;-83
2023/06/15 09:10:09;;;;;;;12.87;8.77;;;;;;;;;;6258361;28;20037;-84
2023/06/15 09:13:16;;;;;;;12.13;7.80;;;;;;;;;;6266477;28;20045;-86
2023/06/15 09:16:16;;;;;;;10.90;8.90;;;;;;;;;;6265597;28;20021;-85
2023/06/15 09:19:19;;;;;;;9.53;6.70;;;;;;;;;;6263960;28;20514;-88
2023/06/15 09:22:19;;;;;;;12.00;7.18;;;;;;;;;;6265860;28;20442;-86
2023/06/15 09:25:20;;;;;;;11.03;7.73;;;;;;;;;;6267997;28;20071;-83
2023/06/15 09:28:22;;;;;;;12.70;7.70;;;;;;;;;;6270139;28;20028;-87
2023/06/15 09:31:32;;;;;;;12.57;8.90;;;;;;;;;;6265067;28;20021;-87
2023/06/15 09:34:32;;;;;;;11.65;8.55;;;;;;;;;;6270192;28;20020;-84
2023/06/15 09:37:33;;;;;;;10.77;8.82;;;;;;;;;;6250233;28;20025;-85
2023/06/15 09:40:33;;;;;;;15.82;10.25;;;;;;;;;;6267605;28;20196;-86
2023/06/15 09:43:34;;;;;;;15.57;9.43;;;;;;;;;;6267391;28;20020;-74
2023/06/15 09:46:35;;;;;;;15.40;8.82;;;;;;;;;;6262778;28;20025;-75
2023/06/15 09:49:35;;;;;;;12.40;8.47;;;;;;;;;;6246226;28;20052;-74
2023/06/15 09:52:36;;;;;;;9.37;7.17;;;;;;;;;;6265466;28;20711;-75
2023/06/15 09:55:37;;;;;;;12.30;9.25;;;;;;;;;;6265067;28;20490;-74
2023/06/15 09:58:37;;;;;;;12.68;8.85;;;;;;;;;;6266960;28;20032;-74
2023/06/15 10:01:38;;;;;;;10.80;8.63;;;;;;;;;;6267235;28;20028;-74
2023/06/15 10:04:40;;;;;;;10.90;8.75;;;;;;;;;;6266755;28;20087;-75
2023/06/15 10:07:40;;;;;;;;;;;;;;;;;;6267336;28;20100;-75
2023/06/15 10:10:42;;;;;;;17.42;9.77;;;;;;;;;;6266243;28;19919;-75
2023/06/15 10:13:48;;;;;;;13.65;9.35;;;;;;;;;;6261582;28;20061;-75
2023/06/15 10:16:51;;;;;;;14.15;9.80;;;;;;;;;;6259938;28;20029;-75
2023/06/15 10:19:52;;;;;;;11.40;9.18;;;;;;;;;;6260372;28;20482;-76
2023/06/15 10:23:00;;;;;;;12.60;9.52;;;;;;;;;;6245102;28;20457;-75
2023/06/15 10:26:00;;;;;;;13.25;10.63;;;;;;;;;;6264764;28;20473;-75
2023/06/15 10:29:06;;;;;;;13.05;9.70;;;;;;;;;;6266807;28;20094;-75
2023/06/15 10:32:18;;;;;;;15.82;11.40;;;;;;;;;;6261410;28;20566;-75
2023/06/15 10:35:29;;;;;;;16.85;12.13;;;;;;;;;;6266803;28;20020;-76
2023/06/15 10:38:30;;;;;;;;;;;;;;;;;;6260550;28;20029;-75
2023/06/15 10:41:30;;;;;;;15.77;12.30;;;;;;;;;;6260653;28;19908;-86
2023/06/15 10:44:31;;;;;;;16.93;12.73;;;;;;;;;;6255643;28;20100;-80
2023/06/15 10:47:31;;;;;;;24.75;18.15;;;;;;;;;;6272441;28;20009;-86
2023/06/15 10:50:48;;;;;;;23.60;16.52;;;;;;;;;;6266626;28;20075;-85
2023/06/15 10:53:48;;;;;;;19.10;13.38;;;;;;;;;;6270344;28;20024;-84
2023/06/15 10:56:50;;;;;;;18.03;12.80;;;;;;;;;;6271647;28;20021;-84
2023/06/15 10:59:54;;;;;;;16.23;13.07;;;;;;;;;;6270333;28;20078;-84
2023/06/15 11:02:59;;;;;;;18.83;11.70;;;;;;;;;;6270917;28;20430;-85
2023/06/15 11:06:03;;;;;;;15.32;11.65;;;;;;;;;;6269774;28;20017;-85
2023/06/15 11:09:07;;;;;;;16.25;12.73;;;;;;;;;;6267386;28;20055;-84
2023/06/15 11:12:36;;;;;;;17.75;12.98;;;;;;;;;;6265022;28;20120;-88
2023/06/15 11:15:37;;;;;;;21.42;14.15;;;;;;;;;;6254206;28;20399;-88
2023/06/15 11:18:54;;;;;;;18.17;12.17;;;;;;;;;;6266452;28;20040;-86
2023/06/15 11:22:07;;;;;;;17.63;12.55;;;;;;;;;;6270935;28;20341;-85
2023/06/15 11:25:10;;;;;;;20.27;13.05;;;;;;;;;;6273136;28;20044;-87
2023/06/15 11:28:15;;;;;;;18.25;11.82;;;;;;;;;;6272491;28;20032;-86
2023/06/15 11:31:16;;;;;;;20.52;13.43;;;;;;;;;;6284347;28;20555;-88
2023/06/15 11:34:16;;;;;;;20.65;13.32;;;;;;;;;;6270937;28;20107;-86
2023/06/15 11:37:22;;;;;;;16.47;13.03;;;;;;;;;;6251950;28;20433;-86
2023/06/15 11:40:22;;;;;;;18.00;13.07;;;;;;;;;;6265048;28;20063;-86
2023/06/15 11:43:22;;;;;;;15.32;11.07;;;;;;;;;;6264182;28;20037;-88
2023/06/15 11:46:22;;;;;;;;;;;;;;;;;;6248440;28;20477;-86
2023/06/15 11:49:23;;;;;;;15.52;11.70;;;;;;;;;;6267164;28;19955;-85
2023/06/15 11:52:23;;;;;;;17.05;11.77;;;;;;;;;;6274627;28;20033;-86
2023/06/15 11:55:24;;;;;;;16.45;11.75;;;;;;;;;;6266048;28;20032;-83
2023/06/15 11:58:24;;;;;;;17.08;12.43;;;;;;;;;;6268115;28;20474;-82
2023/06/15 12:01:25;;;;;;;;;;;;;;;;;;6270070;28;20029;-85
2023/06/15 12:04:30;;;;;;;15.98;11.02;;;;;;;;;;6264821;28;20371;-87
2023/06/15 12:07:32;;;;;;;14.48;12.55;;;;;;;;;;6269795;28;20013;-82
2023/06/15 12:10:33;;;;;;;19.95;12.48;;;;;;;;;;6266190;28;20104;-85
2023/06/15 12:13:33;;;;;;;;;;;;;;;;;;6250005;28;20513;-83
2023/06/15 12:16:34;;;;;;;15.32;12.23;;;;;;;;;;6269383;28;19904;-82
2023/06/15 12:19:35;;;;;;;;;;;;;;;;;;6266634;28;20032;-84
2023/06/15 12:22:36;;;;;;;15.10;11.43;;;;;;;;;;6269567;28;19983;-85
2023/06/15 12:25:46;;;;;;;15.00;11.60;;;;;;;;;;6251544;28;20052;-84
2023/06/15 12:28:50;;;;;;;15.73;11.63;;;;;;;;;;6265507;28;20043;-86
2023/06/15 12:31:51;;;;;;;18.35;12.85;;;;;;;;;;6269521;28;20032;-85
2023/06/15 12:34:52;;;;;;;18.05;11.63;;;;;;;;;;6249877;28;20025;-83
2023/06/15 12:37:53;;;;;;;18.50;12.15;;;;;;;;;;6268823;28;20047;-84
2023/06/15 12:40:54;;;;;;;19.15;12.35;;;;;;;;;;6266951;28;20035;-77
2023/06/15 12:43:54;;;;;;;;;;;;;;;;;;6266802;28;20033;-85
2023/06/15 12:46:54;;;;;;;17.20;10.93;;;;;;;;;;6268096;28;19920;-89
2023/06/15 12:49:55;;;;;;;;;;;;;;;;;;6249055;28;20135;-87
2023/06/15 12:52:58;;;;;;;16.52;10.95;;;;;;;;;;6268878;28;19917;-85
2023/06/15 12:55:58;;;;;;;15.02;11.40;;;;;;;;;;6263466;28;20032;-84
2023/06/15 12:58:58;;;;;;;17.23;13.03;;;;;;;;;;6262609;28;20028;-87
2023/06/15 13:01:58;;;;;;;19.02;13.48;;;;;;;;;;6264676;28;20017;-88
2023/06/15 13:05:03;;;;;;;15.73;11.45;;;;;;;;;;6253167;28;20024;-87
2023/06/15 13:08:04;;;;;;;14.07;12.00;;;;;;;;;;6268610;28;20021;-85
2023/06/15 13:11:04;;;;;;;16.30;11.77;;;;;;;;;;6267211;28;20730;-86
2023/06/15 13:14:04;;;;;;;17.37;11.00;;;;;;;;;;6269160;28;20529;-89
2023/06/15 13:17:04;;;;;;;15.73;12.75;;;;;;;;;;6264117;28;20024;-87
2023/06/15 13:20:06;;;;;;;20.10;11.13;;;;;;;;;;6265752;28;20063;-85
2023/06/15 13:23:06;;;;;;;17.42;12.00;;;;;;;;;;6261506;28;20570;-89
2023/06/15 13:26:06;;;;;;;;;;;;;;;;;;6265218;28;20028;-88
2023/06/15 13:29:06;;;;;;;17.85;12.18;;;;;;;;;;6268383;28;20005;-88
2023/06/15 13:32:08;;;;;;;16.73;11.55;;;;;;;;;;6257921;28;20032;-83
2023/06/15 13:35:08;;;;;;;17.58;11.57;;;;;;;;;;6262491;28;20083;-88
2023/06/15 13:38:09;;;;;;;14.65;11.63;;;;;;;;;;6264166;28;20032;-88
2023/06/15 13:41:09;;;;;;;14.43;11.83;;;;;;;;;;6261601;28;20021;-88
2023/06/15 13:44:09;;;;;;;;;;;;;;;;;;6264670;28;20029;-87
2023/06/15 13:47:09;;;;;;;17.88;12.73;;;;;;;;;;6243258;28;19909;-88
2023/06/15 13:50:09;;;;;;;;;;;;;;;;;;6260202;28;20403;-87
2023/06/15 13:53:10;;;;;;;20.45;11.65;;;;;;;;;;6265628;28;19913;-85
2023/06/15 13:56:10;;;;;;;17.10;11.13;;;;;;;;;;6251568;28;20116;-86
2023/06/15 13:59:10;;;;;;;17.23;11.97;;;;;;;;;;6259116;28;20029;-85
2023/06/15 14:02:10;;;;;;;15.57;10.90;;;;;;;;;;6261961;28;20306;-86
2023/06/15 14:05:13;;;;;;;15.40;11.93;;;;;;;;;;6268838;28;20091;-89
2023/06/15 14:08:13;;;;;;;15.10;10.90;;;;;;;;;;6266298;28;20025;-90
2023/06/15 14:11:14;;;;;;;15.43;11.18;;;;;;;;;;6260124;28;20036;-84
2023/06/15 14:14:14;;;;;;;15.45;10.82;;;;;;;;;;6245386;28;20044;-84
2023/06/15 14:17:14;;;;;;;16.43;10.67;;;;;;;;;;6262926;28;20633;-87
2023/06/15 14:20:14;;;;;;;17.47;11.80;;;;;;;;;;6262078;28;20036;-88
2023/06/15 14:23:15;;;;;;;17.03;12.10;;;;;;;;;;6265526;28;20083;-90
2023/06/15 14:26:15;;;;;;;15.88;11.20;;;;;;;;;;6257137;28;20256;-87
2023/06/15 14:29:15;;;;;;;13.07;10.90;;;;;;;;;;6263620;28;20442;-86
2023/06/15 14:32:16;;;;;;;16.77;12.05;;;;;;;;;;6263176;28;20025;-85
2023/06/15 14:35:16;;;;;;;12.43;10.07;;;;;;;;;;6262301;28;20025;-88
2023/06/15 14:38:16;;;;;;;13.52;11.35;;;;;;;;;;6262908;28;20021;-87
2023/06/15 14:41:16;;;;;;;15.60;11.07;;;;;;;;;;6247888;28;20474;-88
2023/06/15 14:44:17;;;;;;;14.68;11.52;;;;;;;;;;6253698;28;20017;-86
2023/06/15 14:47:17;;;;;;;15.20;11.00;;;;;;;;;;6265007;28;20025;-89
2023/06/15 14:50:17;;;;;;;14.17;10.33;;;;;;;;;;6257504;28;20481;-87
2023/06/15 14:53:18;;;;;;;11.98;9.48;;;;;;;;;;6257105;28;20029;-88
2023/06/15 14:56:18;;;;;;;16.67;10.77;;;;;;;;;;6267055;28;20451;-87
2023/06/15 14:59:18;;;;;;;13.63;10.10;;;;;;;;;;6260932;28;20052;-90
2023/06/15 15:02:18;;;;;;;11.93;9.23;;;;;;;;;;6265855;28;20493;-90
2023/06/15 15:05:19;;;;;;;17.30;10.07;;;;;;;;;;6264080;28;20043;-88
2023/06/15 15:08:19;;;;;;;14.67;9.90;;;;;;;;;;6266404;28;20101;-88
2023/06/15 15:11:20;;;;;;;17.00;9.57;;;;;;;;;;6264122;28;20037;-86
2023/06/15 15:14:20;;;;;;;;;;;;;;;;;;6264989;28;20334;-86
2023/06/15 15:17:20;;;;;;;15.48;8.50;;;;;;;;;;6258826;28;20737;-87
2023/06/15 15:20:20;;;;;;;;;;;;;;;;;;6254629;28;20029;-80
2023/06/15 15:23:21;;;;;;;9.90;8.13;;;;;;;;;;6272637;28;19958;-82
2023/06/15 15:26:21;;;;;;;;;;;;;;;;;;6263860;28;20086;-84
2023/06/15 15:29:21;;;;;;;11.10;7.63;;;;;;;;;;6266153;28;19950;-85
2023/06/15 15:32:21;;;;;;;;;;;;;;;;;;6273733;28;20475;-74
2023/06/15 15:35:23;;;;;;;12.10;7.97;;;;;;;;;;6270824;28;20414;-73
2023/06/15 15:38:23;;;;;;;11.48;6.88;;;;;;;;;;6270804;28;20024;-74
2023/06/15 15:41:24;;;;;;;;;;;;;;;;;;6273750;28;20025;-74
2023/06/15 15:44:25;;;;;;;10.25;6.50;;;;;;;;;;6270219;28;20358;-74
2023/06/15 15:47:25;;;;;;;;;;;;;;;;;;6277998;28;20044;-74
2023/06/15 15:50:25;;;;;;;10.10;7.75;;;;;;;;;;6275134;28;20354;-74
2023/06/15 15:53:25;;;;;;;;;;;;;;;;;;6268387;28;20028;-75
2023/06/15 15:56:25;;;;;;;13.25;7.60;;;;;;;;;;6274254;28;19921;-74
2023/06/15 15:59:26;;;;;;;10.55;7.82;;;;;;;;;;6271807;28;20111;-75
2023/06/15 16:02:26;;;;;;;13.00;7.53;;;;;;;;;;6274342;28;20037;-74
2023/06/15 16:05:26;;;;;;;12.80;8.37;;;;;;;;;;6269429;28;20544;-75
2023/06/15 16:08:27;;;;;;;11.80;7.35;;;;;;;;;;6268627;28;20024;-74
2023/06/15 16:11:27;;;;;;;11.53;7.20;;;;;;;;;;6260335;28;20394;-74
2023/06/15 16:14:27;;;;;;;11.18;7.18;;;;;;;;;;6271228;28;20052;-74
2023/06/15 16:17:27;;;;;;;11.67;6.57;;;;;;;;;;6275378;28;20059;-74
2023/06/15 16:20:27;;;;;;;9.35;6.20;;;;;;;;;;6272852;28;20013;-74
2023/06/15 16:23:28;;;;;;;8.82;5.68;;;;;;;;;;6268633;28;20391;-74
2023/06/15 16:26:28;;;;;;;7.97;6.40;;;;;;;;;;6270506;28;20016;-74
2023/06/15 16:29:28;;;;;;;10.40;5.80;;;;;;;;;;6269304;28;20096;-74
2023/06/15 16:32:28;;;;;;;9.05;5.93;;;;;;;;;;6272585;28;20429;-88
2023/06/15 16:35:28;;;;;;;7.60;5.43;;;;;;;;;;6266431;28;20071;-90
2023/06/15 16:38:29;;;;;;;9.20;5.63;;;;;;;;;;6273310;28;20021;-88
2023/06/15 16:41:29;;;;;;;8.90;5.78;;;;;;;;;;6276534;28;20024;-87
2023/06/15 16:44:29;;;;;;;8.87;5.83;;;;;;;;;;6272289;28;20009;-92
2023/06/15 16:47:30;;;;;;;9.90;5.53;;;;;;;;;;6245884;28;20253;-87
2023/06/15 16:50:30;;;;;;;6.68;5.47;;;;;;;;;;6266950;28;20493;-90
2023/06/15 16:53:30;;;;;;;9.40;5.50;;;;;;;;;;6269103;28;21025;-91
2023/06/15 16:56:31;;;;;;;8.40;4.73;;;;;;;;;;6271413;28;20266;-90
2023/06/15 16:59:31;;;;;;;6.88;4.95;;;;;;;;;;6269901;28;20812;-86
2023/06/15 17:02:32;;;;;;;7.18;5.28;;;;;;;;;;6276704;28;20075;-87
2023/06/15 17:05:32;;;;;;;6.70;4.75;;;;;;;;;;6274093;28;20379;-87
2023/06/15 17:08:32;;;;;;;7.38;4.57;;;;;;;;;;6270900;28;20012;-86
2023/06/15 17:11:32;;;;;;;6.87;4.13;;;;;;;;;;6277418;28;20458;-85
2023/06/15 17:14:32;;;;;;;7.07;4.00;;;;;;;;;;6275053;28;20322;-86
2023/06/15 17:17:33;;;;;;;7.03;4.10;;;;;;;;;;6265899;28;20025;-87
2023/06/15 17:20:33;;;;;;;6.10;3.73;;;;;;;;;;6257363;28;20028;-88
2023/06/15 17:23:33;;;;;;;7.13;3.63;;;;;;;;;;6265477;28;20029;-87
2023/06/15 17:26:34;;;;;;;5.43;3.58;;;;;;;;;;6263942;28;20120;-89
2023/06/15 17:29:36;;;;;;;5.95;3.97;;;;;;;;;;6269521;28;20013;-89
2023/06/15 17:32:36;;;;;;;4.53;3.35;;;;;;;;;;6269737;28;20013;-89
2023/06/15 17:35:36;;;;;;;;;;;;;;;;;;6266720;28;20032;-90
2023/06/15 17:38:36;;;;;;;7.63;4.43;;;;;;;;;;6272127;28;19974;-91
2023/06/15 17:41:38;;;;;;;4.47;3.08;;;;;;;;;;6269486;28;20025;-86
2023/06/15 17:44:38;;;;;;;8.18;3.80;;;;;;;;;;6267278;28;20425;-88
2023/06/15 17:47:38;;;;;;;;;;;;;;;;;;6274708;28;20100;-90
2023/06/15 17:50:39;;;;;;;5.30;3.72;;;;;;;;;;6269932;28;19911;-92